createdAt,value
2024-02-19T00:02:03.474Z,5.47
2024-02-19T00:07:08.896Z,5.90
2024-02-19T00:12:14.410Z,5.73
2024-02-19T00:17:19.781Z,5.73
2024-02-19T00:22:25.446Z,4.97
2024-02-19T00:27:30.765Z,4.73
2024-02-19T00:32:36.260Z,6.03
2024-02-19T00:37:41.570Z,5.13
2024-02-19T00:42:46.956Z,4.63
2024-02-19T00:47:52.430Z,3.40
2024-02-19T00:52:57.854Z,4.63
2024-02-19T00:58:03.460Z,4.57
2024-02-19T01:03:08.906Z,4.00
2024-02-19T01:08:14.338Z,5.33
2024-02-19T01:13:19.767Z,3.37
2024-02-19T01:18:25.244Z,4.63
2024-02-19T01:23:30.855Z,5.23
2024-02-19T01:28:36.169Z,6.60
2024-02-19T01:33:41.661Z,3.03
2024-02-19T01:38:47.070Z,4.27
2024-02-19T01:43:52.321Z,6.73
2024-02-19T01:48:58.262Z,5.80
2024-02-19T01:54:04.003Z,4.93
2024-02-19T01:59:11.676Z,5.03
2024-02-19T02:04:19.963Z,4.37
2024-02-19T02:09:26.369Z,5.37
2024-02-19T02:14:31.940Z,8.07
2024-02-19T02:19:38.147Z,3.93
2024-02-19T02:24:45.184Z,6.53
2024-02-19T02:29:50.549Z,4.27
2024-02-19T02:34:56.119Z,5.40
2024-02-19T02:40:01.549Z,4.87
2024-02-19T02:45:07.169Z,5.50
2024-02-19T02:50:12.518Z,5.80
2024-02-19T02:55:17.935Z,5.90
2024-02-19T03:00:23.506Z,4.00
2024-02-19T03:05:28.919Z,3.90
2024-02-19T03:10:34.284Z,3.50
2024-02-19T03:15:39.873Z,5.57
2024-02-19T03:20:45.496Z,5.50
2024-02-19T03:25:51.151Z,6.47
2024-02-19T03:30:56.489Z,4.50
2024-02-19T03:36:01.916Z,4.90
2024-02-19T03:41:10.144Z,4.80
2024-02-19T03:46:16.487Z,4.80
2024-02-19T03:51:21.797Z,4.97
2024-02-19T03:56:27.209Z,6.67
2024-02-19T04:01:32.662Z,5.97
2024-02-19T04:06:38.135Z,4.47
2024-02-19T04:11:43.656Z,5.93
2024-02-19T04:16:49.044Z,5.20
2024-02-19T04:21:54.427Z,4.37
2024-02-19T04:27:00.184Z,5.13
2024-02-19T04:32:05.646Z,4.10
2024-02-19T04:37:11.318Z,4.13
2024-02-19T04:42:21.996Z,5.33
2024-02-19T04:47:27.377Z,5.83
2024-02-19T04:52:32.798Z,6.93
2024-02-19T04:57:38.293Z,5.60
2024-02-19T05:02:43.627Z,5.83
2024-02-19T05:07:49.511Z,5.77
2024-02-19T05:12:54.973Z,5.43
2024-02-19T05:18:01.104Z,5.43
2024-02-19T05:23:06.483Z,5.37
2024-02-19T05:28:11.876Z,5.33
2024-02-19T05:33:20.767Z,4.50
2024-02-19T05:38:26.276Z,4.60
2024-02-19T05:43:31.643Z,4.70
2024-02-19T05:48:37.118Z,5.53
2024-02-19T05:53:42.719Z,4.70
2024-02-19T05:58:49.226Z,6.90
2024-02-19T06:03:54.722Z,5.30
2024-02-19T06:09:00.270Z,4.93
2024-02-19T06:14:05.645Z,4.37
2024-02-19T06:19:11.840Z,4.53
2024-02-19T06:24:17.283Z,5.57
2024-02-19T06:29:22.711Z,4.40
2024-02-19T06:34:32.953Z,5.27
2024-02-19T06:39:40.202Z,4.53
2024-02-19T06:44:45.753Z,6.50
2024-02-19T06:49:51.480Z,6.90
2024-02-19T06:54:57.149Z,3.47
2024-02-19T07:00:02.923Z,5.43
2024-02-19T07:05:09.811Z,5.43
2024-02-19T07:10:15.744Z,6.90
2024-02-19T07:15:21.173Z,6.77
2024-02-19T07:20:28.450Z,9.03
2024-02-19T07:25:34.194Z,7.47
2024-02-19T07:30:39.895Z,9.37
2024-02-19T07:35:45.392Z,6.93
2024-02-19T07:40:51.805Z,5.17
2024-02-19T07:45:57.835Z,7.20
2024-02-19T07:51:03.484Z,2.40
2024-02-19T07:56:09.051Z,6.80
2024-02-19T08:01:14.767Z,5.77
2024-02-19T08:06:20.400Z,6.73
2024-02-19T08:11:25.725Z,6.67
2024-02-19T08:16:31.109Z,6.83
2024-02-19T08:21:36.605Z,5.37
2024-02-19T08:26:41.938Z,5.97
2024-02-19T08:31:47.260Z,6.77
2024-02-19T08:36:52.793Z,6.03
2024-02-19T08:41:59.220Z,5.87
2024-02-19T08:47:06.207Z,6.77
2024-02-19T08:52:11.492Z,7.33
2024-02-19T08:57:17.885Z,7.30
2024-02-19T09:02:23.191Z,26.30
2024-02-19T09:07:28.620Z,9.43
2024-02-19T09:12:34.168Z,7.30
2024-02-19T09:17:39.592Z,9.47
2024-02-19T09:22:45.102Z,4.93
2024-02-19T09:27:51.424Z,7.87
2024-02-19T09:32:56.971Z,8.47
2024-02-19T09:38:02.513Z,7.73
2024-02-19T09:43:08.391Z,15.07
2024-02-19T09:48:15.255Z,9.57
2024-02-19T09:53:23.328Z,9.83
2024-02-19T09:58:31.745Z,13.33
2024-02-19T10:03:37.130Z,9.47
2024-02-19T10:08:42.528Z,8.93
2024-02-19T10:13:49.733Z,10.20
2024-02-19T10:19:06.642Z,12.30
2024-02-19T10:24:12.510Z,17.23
2024-02-19T10:29:19.696Z,9.43
2024-02-19T10:34:25.134Z,12.77
2024-02-19T10:39:32.239Z,8.20
2024-02-19T10:44:38.248Z,10.47
2024-02-19T10:50:00.810Z,11.30
2024-02-19T10:55:14.768Z,10.33
2024-02-19T11:00:20.821Z,8.33
2024-02-19T11:05:30.874Z,10.10
2024-02-19T11:10:42.480Z,11.60
2024-02-19T11:15:48.492Z,12.30
2024-02-19T11:20:53.881Z,11.67
2024-02-19T11:26:01.374Z,14.77
2024-02-19T11:31:07.549Z,11.23
2024-02-19T11:36:13.230Z,11.20
2024-02-19T11:41:18.650Z,8.90
2024-02-19T11:46:24.138Z,13.50
2024-02-19T11:51:30.991Z,9.93
2024-02-19T11:56:47.230Z,13.37
2024-02-19T12:01:57.759Z,10.17
2024-02-19T12:07:03.893Z,10.27
2024-02-19T12:12:11.468Z,12.53
2024-02-19T12:17:16.868Z,11.23
2024-02-19T12:22:23.745Z,10.90
2024-02-19T12:27:29.687Z,22.50
2024-02-19T12:32:35.481Z,18.40
2024-02-19T12:37:41.509Z,20.60
2024-02-19T12:48:29.859Z,13.63
2024-02-19T12:53:35.753Z,11.77
2024-02-19T12:58:45.152Z,10.87
2024-02-19T13:03:53.194Z,10.17
2024-02-19T13:09:06.069Z,14.23
2024-02-19T13:14:16.381Z,13.43
2024-02-19T13:19:27.569Z,9.07
2024-02-19T13:24:33.077Z,12.77
2024-02-19T13:29:40.344Z,10.13
2024-02-19T13:34:50.571Z,10.43
2024-02-19T13:40:03.468Z,11.10
2024-02-19T13:45:26.362Z,12.23
2024-02-19T13:50:40.340Z,13.90
2024-02-19T13:55:48.056Z,16.63
2024-02-19T14:01:04.787Z,13.00
2024-02-19T14:06:30.306Z,12.97
2024-02-19T14:12:05.679Z,10.80
2024-02-19T14:17:17.799Z,13.00
2024-02-19T14:22:35.301Z,14.17
2024-02-19T14:27:44.781Z,19.67
2024-02-19T14:32:51.894Z,15.47
2024-02-19T14:38:11.439Z,12.00
2024-02-19T14:43:22.824Z,9.73
2024-02-19T14:48:32.620Z,8.63
2024-02-19T14:53:47.734Z,9.07
2024-02-19T14:58:54.742Z,7.30
2024-02-19T15:04:06.302Z,6.47
2024-02-19T15:09:20.170Z,5.90
2024-02-19T15:14:51.834Z,7.63
2024-02-19T15:20:21.358Z,6.40
2024-02-19T15:25:28.170Z,9.07
2024-02-19T15:30:45.426Z,5.80
2024-02-19T15:35:56.748Z,6.10
2024-02-19T15:41:06.261Z,5.70
2024-02-19T15:46:25.922Z,3.60
2024-02-19T15:51:33.480Z,2.90
2024-02-19T15:56:44.672Z,20.30
2024-02-19T16:01:51.302Z,8.47
2024-02-19T16:07:08.006Z,5.13
2024-02-19T16:12:14.642Z,2.70
2024-02-19T16:17:22.202Z,1.67
2024-02-19T16:22:28.019Z,1.97
2024-02-19T16:27:35.608Z,1.80
2024-02-19T16:32:41.165Z,3.63
2024-02-19T16:37:48.230Z,2.07
2024-02-19T16:42:55.837Z,4.60
2024-02-19T16:48:06.267Z,6.87
2024-02-19T16:53:14.636Z,3.20
2024-02-19T16:58:38.451Z,2.10
2024-02-19T17:03:53.283Z,1.90
2024-02-19T17:09:02.942Z,2.80
2024-02-19T17:14:14.906Z,1.70
2024-02-19T17:19:23.347Z,1.90
2024-02-19T17:24:33.337Z,3.00
2024-02-19T17:29:47.266Z,1.70
2024-02-19T17:34:58.106Z,2.60
2024-02-19T17:40:05.827Z,2.53
2024-02-19T17:45:13.148Z,4.77
2024-02-19T17:50:26.599Z,3.27
2024-02-19T17:55:34.510Z,2.67
2024-02-19T18:00:54.226Z,2.53
2024-02-19T18:06:13.204Z,2.57
2024-02-19T18:11:21.443Z,2.33
2024-02-19T18:16:29.704Z,1.90
2024-02-19T18:21:40.369Z,2.80
2024-02-19T18:26:51.374Z,2.83
2024-02-19T18:31:58.466Z,1.73
2024-02-19T18:37:07.620Z,5.13
2024-02-19T18:42:15.887Z,5.50
2024-02-19T18:47:21.401Z,3.27
2024-02-19T18:52:27.933Z,2.80
2024-02-19T18:57:35.791Z,4.07
2024-02-19T19:02:42.686Z,2.20
2024-02-19T19:07:48.048Z,3.03
2024-02-19T19:12:56.449Z,3.23
2024-02-19T19:18:09.317Z,6.43
2024-02-19T19:23:20.263Z,3.03
2024-02-19T19:28:30.765Z,3.67
2024-02-19T19:33:41.162Z,5.17
2024-02-19T19:38:52.613Z,2.63
2024-02-19T19:43:58.094Z,4.60
2024-02-19T19:49:07.398Z,5.83
2024-02-19T19:54:12.924Z,4.67
2024-02-19T19:59:19.590Z,3.70
2024-02-19T20:04:31.470Z,2.77
2024-02-19T20:09:38.035Z,2.77
2024-02-19T20:14:44.305Z,2.70
2024-02-19T20:19:50.912Z,2.10
2024-02-19T20:24:57.989Z,1.57
2024-02-19T20:30:03.894Z,1.80
2024-02-19T20:35:10.919Z,1.87
2024-02-19T20:40:16.521Z,2.20
2024-02-19T20:45:22.165Z,3.40
2024-02-19T20:50:27.965Z,3.73
2024-02-19T20:55:33.806Z,3.50
2024-02-19T21:00:39.742Z,1.73
2024-02-19T21:05:45.572Z,3.00
2024-02-19T21:10:51.573Z,6.03
2024-02-19T21:15:58.964Z,2.57
2024-02-19T21:21:07.929Z,2.70
2024-02-19T21:26:17.744Z,1.63
2024-02-19T21:31:31.916Z,1.87
2024-02-19T21:36:40.733Z,1.77
2024-02-19T21:41:49.080Z,3.20
2024-02-19T21:46:58.302Z,4.40
2024-02-19T21:52:04.545Z,18.33
2024-02-19T21:57:10.149Z,12.47
2024-02-19T22:02:17.328Z,2.97
2024-02-19T22:07:24.426Z,2.20
2024-02-19T22:12:33.667Z,1.90
2024-02-19T22:17:39.104Z,3.27
2024-02-19T22:22:44.737Z,2.33
2024-02-19T22:27:50.698Z,1.47
2024-02-19T22:32:56.374Z,1.73
2024-02-19T22:38:01.932Z,1.77
2024-02-19T22:43:08.947Z,2.03
2024-02-19T22:48:14.588Z,1.60
2024-02-19T22:53:21.221Z,5.53
2024-02-19T22:58:32.697Z,2.03
2024-02-19T23:03:34.938Z,2.83
2024-02-19T23:08:40.386Z,1.73
2024-02-19T23:13:45.894Z,1.67
2024-02-19T23:18:51.320Z,1.80
2024-02-19T23:23:56.744Z,1.80
2024-02-19T23:29:02.738Z,2.03
2024-02-19T23:34:08.338Z,2.30
2024-02-19T23:39:13.761Z,3.00
2024-02-19T23:44:19.002Z,1.37
2024-02-19T23:49:24.527Z,1.57
2024-02-19T23:54:31.588Z,2.03
